createdAt,value
2018-10-11T16:00:48.141Z,21.90
2018-10-11T16:03:16.359Z,22.00
2018-10-11T16:05:44.637Z,21.90
2018-10-11T16:08:12.721Z,21.70
2018-10-11T16:10:41.630Z,21.70
2018-10-11T16:13:09.815Z,21.40
2018-10-11T16:15:37.944Z,21.30
2018-10-11T16:18:06.121Z,21.40
2018-10-11T16:20:34.338Z,21.40
2018-10-11T16:23:02.497Z,21.30
2018-10-11T16:25:30.657Z,21.50
2018-10-11T16:27:58.799Z,21.50
2018-10-11T16:30:26.953Z,21.50
2018-10-11T16:32:55.093Z,21.50
2018-10-11T16:35:23.307Z,21.40
2018-10-11T16:37:51.482Z,21.20
2018-10-11T16:40:19.616Z,21.20
2018-10-11T16:42:47.803Z,21.10
2018-10-11T16:45:15.928Z,20.90
2018-10-11T16:47:44.072Z,20.70
2018-10-11T16:50:12.332Z,20.60
2018-10-11T16:52:41.208Z,20.40
2018-10-11T16:55:09.360Z,20.20
2018-10-11T16:57:37.496Z,19.90
2018-10-11T17:00:06.115Z,20.00
2018-10-11T17:02:34.296Z,19.70
2018-10-11T17:05:02.443Z,19.60
2018-10-11T17:07:30.610Z,19.50
2018-10-11T17:09:58.786Z,19.30
2018-10-11T17:12:26.935Z,19.20
2018-10-11T17:14:55.084Z,19.10
2018-10-11T17:17:23.236Z,19.00
2018-10-11T17:19:51.415Z,19.20
2018-10-11T17:22:19.584Z,19.10
2018-10-11T17:24:47.739Z,19.00
2018-10-11T17:27:15.892Z,19.30
2018-10-11T17:29:44.184Z,18.90
2018-10-11T17:32:12.253Z,19.00
2018-10-11T17:34:40.421Z,18.90
2018-10-11T17:37:08.580Z,19.40
2018-10-11T17:39:36.756Z,19.50
2018-10-11T17:42:04.961Z,19.50
2018-10-11T17:44:33.068Z,19.60
2018-10-11T17:47:01.274Z,19.50
2018-10-11T17:49:29.456Z,19.60
2018-10-11T17:51:57.613Z,19.60
2018-10-11T17:54:25.768Z,19.70
2018-10-11T17:56:53.966Z,19.70
2018-10-11T17:59:22.135Z,19.70
2018-10-11T18:01:50.314Z,19.80
2018-10-11T18:04:18.492Z,19.70
2018-10-11T18:06:46.655Z,19.70
2018-10-11T18:09:14.815Z,19.70
2018-10-11T18:11:42.956Z,19.60
2018-10-11T18:14:11.908Z,19.50
2018-10-11T18:16:40.072Z,19.70
2018-10-11T18:19:08.576Z,19.80
2018-10-11T18:21:36.805Z,19.70
2018-10-11T18:24:04.895Z,19.60
2018-10-11T18:26:33.033Z,19.60
2018-10-11T18:29:01.213Z,19.60
2018-10-11T18:31:29.337Z,19.50
2018-10-11T18:33:57.488Z,19.40
2018-10-11T18:36:25.633Z,19.50
2018-10-11T18:38:53.817Z,19.30
2018-10-11T18:41:22.212Z,19.40
2018-10-11T18:43:50.400Z,19.40
2018-10-11T18:46:18.969Z,19.20
2018-10-11T18:48:47.118Z,19.20
2018-10-11T18:51:15.760Z,19.10
2018-10-11T18:53:44.252Z,19.00
2018-10-11T18:56:14.611Z,19.00
2018-10-11T18:58:52.060Z,18.90
2018-10-11T19:01:20.485Z,18.80
2018-10-11T19:03:53.265Z,18.90
2018-10-11T19:06:21.706Z,18.80
2018-10-11T19:08:51.019Z,18.90
2018-10-11T19:11:19.194Z,19.00
2018-10-11T19:13:47.410Z,19.00
2018-10-11T19:16:15.596Z,18.80
2018-10-11T19:18:43.776Z,19.00
2018-10-11T19:21:12.062Z,19.00
2018-10-11T19:23:46.990Z,19.00
2018-10-11T19:26:15.146Z,18.90
2018-10-11T19:28:43.336Z,18.80
2018-10-11T19:31:11.577Z,18.80
2018-10-11T19:33:39.749Z,18.80
2018-10-11T19:36:08.362Z,18.80
2018-10-11T19:38:36.643Z,18.80
2018-10-11T19:41:04.858Z,18.80
2018-10-11T19:43:32.992Z,18.70
2018-10-11T19:46:01.152Z,18.60
2018-10-11T19:48:29.323Z,18.70
2018-10-11T19:50:57.453Z,18.60
2018-10-11T19:53:25.627Z,18.50
2018-10-11T19:55:53.848Z,18.40
2018-10-11T19:58:22.413Z,18.40
2018-10-11T20:00:50.598Z,18.30
2018-10-11T20:03:18.768Z,18.30
2018-10-11T20:05:46.941Z,18.20
2018-10-11T20:08:15.180Z,18.20
2018-10-11T20:10:43.271Z,18.20
2018-10-11T20:13:11.439Z,18.20
2018-10-11T20:15:39.579Z,18.30
2018-10-11T20:18:07.755Z,18.20
2018-10-11T20:20:35.947Z,18.30
2018-10-11T20:23:04.159Z,18.30
2018-10-11T20:25:32.313Z,18.30
2018-10-11T20:28:00.468Z,18.20
2018-10-11T20:30:28.658Z,18.20
2018-10-11T20:32:57.061Z,18.20
2018-10-11T20:35:25.243Z,18.20
2018-10-11T20:37:53.417Z,18.10
2018-10-11T20:40:21.576Z,18.00
2018-10-11T20:42:49.744Z,17.90
2018-10-11T20:45:17.900Z,17.90
2018-10-11T20:47:46.036Z,17.90
2018-10-11T20:50:14.211Z,17.90
2018-10-11T20:52:42.346Z,18.00
2018-10-11T20:55:10.484Z,18.00
2018-10-11T20:57:38.655Z,18.00
2018-10-11T21:00:07.488Z,18.00
2018-10-11T21:02:35.635Z,18.10
2018-10-11T21:05:03.785Z,18.00
2018-10-11T21:07:31.951Z,18.00
2018-10-11T21:10:00.085Z,18.00
2018-10-11T21:12:28.236Z,18.00
2018-10-11T21:14:56.669Z,18.00
2018-10-11T21:17:24.824Z,18.00
2018-10-11T21:19:52.989Z,17.90
2018-10-11T21:22:21.153Z,18.00
2018-10-11T21:24:49.328Z,17.90
2018-10-11T21:27:17.740Z,17.90
2018-10-11T21:29:45.908Z,18.00
2018-10-11T21:32:14.060Z,18.00
2018-10-11T21:34:42.226Z,17.90
2018-10-11T21:37:10.386Z,17.90
2018-10-11T21:39:38.553Z,17.90
2018-10-11T21:42:06.744Z,17.90
2018-10-11T21:44:34.920Z,17.80
2018-10-11T21:47:03.064Z,17.80
2018-10-11T21:49:31.216Z,17.90
2018-10-11T21:51:59.360Z,17.80
2018-10-11T21:54:27.510Z,17.80
2018-10-11T21:56:55.659Z,17.90
2018-10-11T21:59:23.799Z,17.90
